»·PEaware :: N44YP KELP-KABQ

N44YP :: KELP-KABQ

FLIGHT INFORMATION

Flight Status: Arrived
Operator: Privately registered:
United States
More flights under this callsign
Pilot: Mark B. (13687)
Aircraft: CESSNA 208 CARAVAN
(C208)
More flights by this aircraft type
Origin: KELP El Paso Intl
United States
Destination: KABQ Albuquerque Intl Sunport
United States
More flights between these airports :: More routes between these airports
Route: MOLLY V611 ONM
File this flight plan on PilotEdge
Remarks: Sample flight plan
Altitude:
(Current/Filed)
14,000ft
Speed:
(Current/Filed)
170kts
Departed: 16-May-18 06:11 PM
Arrived: 16-May-18 07:05 PM
Distance/Time
Traveled:
194nm/0:54
Distance/Time
To Go:
Arrived

Flight Plot

Page will automatically refresh every two minutes.

Flight plan parsing failed; only flown route is shown


Map Options




Map Legend


Flown Route
Filed Route
Departure Airport
Arrival Airport
Navaid (VOR, NDB)
Fix

Horizontal Profiles

Position Reports

Time Latitude Longitude Heading Altitude Ground
Speed
16-May-18 17:53 31.798070 -106.377236 312 3941ft 0kts
16-May-18 17:54 31.798070 -106.377236 312 3941ft 0kts
16-May-18 17:55 31.798070 -106.377236 312 3941ft 0kts
16-May-18 17:56 31.798070 -106.377236 312 3941ft 0kts
16-May-18 17:57 31.798070 -106.377236 312 3941ft 0kts
16-May-18 17:58 31.798070 -106.377236 312 3941ft 0kts
16-May-18 17:59 31.798070 -106.377236 312 3941ft 0kts
16-May-18 18:00 31.798070 -106.377236 312 3941ft 0kts
16-May-18 18:01 31.798070 -106.377236 312 3941ft 0kts
16-May-18 18:02 31.798070 -106.377236 312 3941ft 0kts
16-May-18 18:03 31.797911 -106.378271 224 3940ft 9kts
16-May-18 18:04 31.798738 -106.377643 12 3940ft 12kts
16-May-18 18:05 31.799684 -106.374117 93 3946ft 16kts
16-May-18 18:06 31.799385 -106.367853 92 3955ft 20kts
16-May-18 18:07 31.799044 -106.361341 92 3948ft 19kts
16-May-18 18:08 31.799535 -106.360377 1 3945ft 0kts
16-May-18 18:09 31.799535 -106.360377 1 3945ft 0kts
16-May-18 18:10 31.800379 -106.360362 346 3945ft 15kts
16-May-18 18:11 31.801514 -106.386188 263 4378ft 109kts
16-May-18 18:12 31.776103 -106.404018 184 5309ft 140kts
16-May-18 18:13 31.737344 -106.387453 179 6333ft 157kts
16-May-18 18:14 31.698667 -106.363982 137 7335ft 164kts
16-May-18 18:15 31.675180 -106.322802 61 8350ft 158kts
16-May-18 18:16 31.707565 -106.322715 315 9381ft 140kts
16-May-18 18:17 31.735521 -106.354419 314 10371ft 139kts
16-May-18 18:18 31.762427 -106.384582 315 11150ft 132kts
16-May-18 18:19 31.789219 -106.414726 315 11627ft 133kts
16-May-18 18:20 31.815894 -106.444779 311 12116ft 133kts
16-May-18 18:21 31.854858 -106.489047 310 13388ft 126kts
16-May-18 18:22 31.914560 -106.556036 311 14040ft 147kts
16-May-18 18:23 31.983089 -106.633552 311 14039ft 150kts
16-May-18 18:24 32.050223 -106.709707 311 14095ft 151kts
16-May-18 18:25 32.134914 -106.756677 333 14094ft 158kts
16-May-18 18:26 32.217376 -106.793836 333 14142ft 138kts
16-May-18 18:27 32.284041 -106.824155 330 14094ft 119kts
16-May-18 18:28 32.368165 -106.862540 334 14067ft 173kts
16-May-18 18:29 32.464546 -106.906063 333 14070ft 173kts
16-May-18 18:30 32.573241 -106.955440 333 14067ft 178kts
16-May-18 18:31 32.687661 -107.007560 333 14046ft 180kts
16-May-18 18:32 32.811465 -107.064135 333 14040ft 179kts
16-May-18 18:33 32.930292 -107.118537 334 14038ft 173kts
16-May-18 18:34 33.014988 -107.157438 333 14040ft 163kts
16-May-18 18:35 33.113315 -107.202759 333 14038ft 163kts
16-May-18 18:36 33.205105 -107.245131 333 14037ft 162kts
16-May-18 18:37 33.383872 -107.215007 26 14039ft 173kts
16-May-18 18:38 33.575539 -107.094560 25 14041ft 174kts
16-May-18 18:39 33.779521 -106.964121 25 14040ft 175kts
16-May-18 18:40 34.002393 -106.885442 5 14041ft 172kts
16-May-18 18:41 34.155214 -106.855787 4 14038ft 171kts
16-May-18 18:42 34.252492 -106.837234 4 14067ft 171kts
16-May-18 18:43 34.351457 -106.817912 9 14067ft 172kts
16-May-18 18:44 34.450287 -106.787256 10 13657ft 189kts
16-May-18 18:45 34.557602 -106.754662 10 13066ft 181kts
16-May-18 18:46 34.605662 -106.740126 10 13068ft 176kts
16-May-18 18:47 34.650819 -106.739971 328 13048ft 165kts
16-May-18 18:48 34.692286 -106.764904 329 13009ft 166kts
16-May-18 18:49 34.732826 -106.790958 325 13006ft 165kts
16-May-18 18:50 34.773104 -106.811849 329 13039ft 165kts
16-May-18 18:51 34.814016 -106.838070 331 13041ft 167kts
16-May-18 18:52 34.854620 -106.864804 333 13138ft 165kts
16-May-18 18:53 34.898891 -106.895269 327 12329ft 197kts
16-May-18 18:54 34.945995 -106.932268 326 11353ft 203kts
16-May-18 18:55 34.994134 -106.965768 337 9592ft 197kts
16-May-18 18:56 35.040812 -106.984206 340 8235ft 152kts
16-May-18 18:57 35.061162 -106.952981 114 7794ft 167kts
16-May-18 18:58 35.054810 -106.907377 87 8141ft 140kts
16-May-18 18:59 35.056166 -106.853265 93 7594ft 179kts
16-May-18 19:00 35.052319 -106.797659 98 7239ft 163kts
16-May-18 19:01 35.048641 -106.746981 97 6430ft 136kts
16-May-18 19:02 35.046148 -106.708480 95 6298ft 110kts
16-May-18 19:03 35.045094 -106.666140 89 6079ft 124kts
16-May-18 19:04 35.044625 -106.628768 94 5605ft 100kts
16-May-18 19:05 35.044204 -106.603828 86 5319ft 35kts
16-May-18 19:06 35.044092 -106.598501 105 5320ft 23kts
16-May-18 19:07 35.043260 -106.596487 145 5320ft 5kts
16-May-18 19:08 35.042581 -106.603016 271 5317ft 26kts
16-May-18 19:09 35.042446 -106.612342 270 5314ft 29kts
16-May-18 19:10 35.037211 -106.614820 210 5314ft 18kts
16-May-18 19:11 35.036719 -106.616510 57 5313ft 0kts

Navigation Log

Ident Type
Flight plan parsing failed, navigation log unavailable